Date,TemperatureHighF,TemperatureAvgF,TemperatureLowF,DewpointHighF,DewpointAvgF,DewpointLowF,HumidityHigh,HumidityAvg,HumidityLow,PressureMaxIn,PressureMinIn,WindSpeedMaxMPH,WindSpeedAvgMPH,GustSpeedMaxMPH,PrecipitationSumIn
2013-1-1,27.3,22.7,16.7,15.5,12.8,10.5,79,66,50,30.27,30.17,11,4,13,0.00
2013-1-2,25.4,20.4,9.1,17.5,12.7,4.7,83,72,64,30.28,30.17,8,4,13,0.00
2013-1-3,32.6,30.8,27.3,27.2,24.3,20.1,88,77,67,30.27,30.19,8,5,14,0.00
2013-1-4,33.8,26.6,14.2,26.4,20.7,10.4,85,79,74,30.32,30.24,9,7,17,0.00
2013-1-5,35.6,31.1,20.2,32.4,26.6,16.5,93,83,75,30.26,30.09,13,5,15,0.01
2013-1-6,32.9,27.9,23.2,25.5,22.1,18.6,84,79,73,30.24,30.06,9,7,13,0.00
2013-1-7,37.4,31.1,19.4,28.8,25.0,16.6,89,78,70,30.38,30.19,12,8,19,0.00
2013-1-8,42.8,35.1,26.2,34.3,29.4,23.1,89,80,70,30.20,30.14,9,5,12,0.00
2013-1-9,51.2,44.2,33.9,36.5,32.1,25.2,88,64,41,30.41,30.25,10,6,13,0.00
2013-1-10,44.4,38.3,27.5,38.0,31.4,24.1,95,77,55,30.47,29.98,19,13,24,0.32
2013-1-11,54.2,50.9,48.5,50.7,48.5,46.8,95,92,87,29.82,29.74,10,7,16,0.12
2013-1-12,52.6,45.3,36.3,49.1,41.3,30.8,92,86,80,29.98,29.85,7,4,11,0.00
2013-1-13,27.0,24.5,21.2,24.9,21.7,17.3,92,89,85,30.12,29.93,9,5,12,0.00
2013-1-14,25.7,18.9,13.6,18.7,13.6,9.9,85,80,71,30.50,30.45,7,3,10,0.01
2013-1-15,30.1,25.5,13.9,22.3,18.9,11.3,90,76,67,30.48,30.31,6,2,8,0.00
2013-1-16,36.6,30.0,17.5,28.6,23.1,15.1,90,76,68,30.07,29.91,11,8,19,0.01
2013-1-17,32.2,30.1,27.6,22.3,18.9,15.5,80,63,53,30.37,30.27,10,7,16,0.00
2013-1-18,41.6,35.1,21.5,31.4,27.0,18.0,86,73,65,30.43,30.05,16,10,27,0.01
2013-1-19,50.6,45.0,36.2,40.0,35.8,30.6,80,70,65,29.95,29.78,16,10,24,0.00
2013-1-20,22.7,19.8,15.5,11.4,9.2,6.8,70,63,57,30.33,30.28,7,5,12,0.00
2013-1-21,14.1,12.4,10.8,5.4,-1.2,-4.1,74,54,45,30.28,30.22,11,8,20,0.00
2013-1-22,14.5,9.3,1.8,0.4,-1.4,-3.5,78,62,51,30.47,30.39,7,5,15,0.00
2013-1-23,24.6,19.1,14.6,12.6,8.4,4.3,74,63,56,30.34,30.15,7,4,9,0.00
2013-1-24,23.9,17.9,7.9,9.1,4.8,0.1,70,57,42,30.67,30.53,11,7,15,0.00
2013-1-25,33.7,26.4,19.4,23.1,19.5,16.2,87,76,60,30.19,30.01,9,5,16,0.00
2013-1-26,30.9,23.8,10.8,18.8,12.6,6.8,85,63,46,30.43,30.37,7,2,9,0.00
2013-1-27,34.8,31.6,26.1,30.0,24.6,19.8,88,75,68,30.35,30.12,16,12,20,0.01
2013-1-28,50.3,48.1,43.8,49.5,47.1,42.7,97,96,94,29.95,29.88,11,3,16,0.03
2013-1-29,62.5,59.5,55.2,59.5,57.5,54.1,96,93,90,29.69,29.43,15,9,25,1.05
2013-1-30,49.6,39.8,31.4,48.9,37.8,30.1,98,93,85,29.41,29.22,13,8,19,0.25
2013-1-31,20.1,17.8,14.3,15.2,12.2,8.2,82,78,74,30.03,29.84,10,7,18,0.00